Latest Weather Observations for Ballarat

IDV60801

Issued at 6:32 pm EST Monday 23 May 2022 (issued every 10 minutes, with the page automatically refreshed every 10 minutes)

About weather observations | Map of weather stations | Latest weather observations for VIC | Other Formats
Station Details ID: 089002 Name: BALLARAT AERODROME Lat: -37.51 Lon: 143.79 Height: 435.2 m
Data from the previous 72 hours. | See also: Recent months at Ballarat
Date/Time
EST
Temp
°C
App
Temp
°C
Dew
Point
°C
Rel
Hum
%
Delta-T
°C
Wind Press
QNH
hPa
Press
MSL
hPa
Rain since
9am
mm
Dir  Spd
km/h
Gust
km/h
Spd
kts
Gust
kts
23/06:30pm 8.9 8.0 6.0 82 1.4 CALM 0 0 0 0 1028.0 1028.3 0.0
23/06:00pm 10.2 8.3 6.9 80 1.6 NNE 6 7 3 4 1027.7 1028.1 0.0
23/05:30pm 12.1 10.1 7.2 72 2.4 N 7 7 4 4 1027.6 1028.0 0.0
23/05:00pm 13.8 11.6 7.8 67 3.0 N 9 9 5 5 1027.6 1028.0 0.0
23/04:30pm 15.2 13.1 8.4 64 3.5 N 9 11 5 6 1027.4 1027.8 0.0
23/04:00pm 16.0 13.4 7.7 58 4.2 N 11 15 6 8 1027.5 1027.9 0.0
23/03:30pm 16.1 13.3 6.8 54 4.7 NNE 11 17 6 9 1027.5 1027.9 0.0
23/03:00pm 16.3 13.2 7.3 55 4.6 NNE 13 17 7 9 1027.5 1027.9 0.0
23/02:30pm 16.3 12.9 7.8 57 4.4 N 15 20 8 11 1027.6 1028.0 0.0
23/02:00pm 16.1 12.2 7.3 56 4.4 N 17 22 9 12 1028.0 1028.3 0.0
23/01:30pm 15.8 12.0 7.6 58 4.2 N 17 22 9 12 1028.1 1028.4 0.0
23/01:00pm 16.1 12.9 8.3 60 4.0 N 15 26 8 14 1028.3 1028.6 0.0
23/12:30pm 15.6 11.9 7.9 60 3.9 N 17 22 9 12 1028.7 1029.0 0.0
23/12:00pm 15.2 10.9 7.0 58 4.1 N 19 26 10 14 1029.1 1029.5 0.0
23/11:30am 14.9 11.4 7.0 59 4.0 N 15 19 8 10 1029.5 1029.9 0.0
23/11:00am 14.5 10.6 7.3 62 3.6 N 17 20 9 11 1029.7 1030.1 0.0
23/10:30am 13.0 8.7 7.0 67 3.0 N 19 24 10 13 1029.7 1030.1 0.0
23/10:00am 12.1 8.2 5.5 64 3.1 NNE 15 20 8 11 1029.9 1030.3 0.0
23/09:30am 11.2 8.6 6.1 71 2.4 NNW 9 11 5 6 1029.9 1030.3 0.0
23/09:00am 9.1 7.3 5.3 77 1.7 N 4 9 2 5 1029.8 1030.2 0.4
23/08:30am 5.2 2.2 4.2 93 0.4 NE 9 9 5 5 1029.5 1029.9 0.4
23/08:00am 2.7 -0.2 1.5 92 0.5 ESE 6 7 3 4 1029.1 1029.5 0.4
23/07:30am 1.6 -1.4 0.9 95 0.3 E 6 7 3 4 1028.8 1029.1 0.4
23/07:00am 1.1 -2.2 -0.1 92 0.4 E 7 9 4 5 1028.6 1028.9 0.4
23/06:30am 2.1 -0.8 1.2 94 0.4 E 6 7 3 4 1028.3 1028.6 0.4
23/06:00am 1.7 -1.5 0.8 94 0.3 E 7 7 4 4 1028.1 1028.4 0.4
23/05:30am 2.3 -0.8 1.4 94 0.4 SE 7 7 4 4 1028.1 1028.4 0.4
23/05:00am 2.2 -0.9 1.3 94 0.4 ESE 7 9 4 5 1028.1 1028.4 0.2
23/04:30am 3.4 0.7 2.7 95 0.3 ESE 6 7 3 4 1028.0 1028.3 0.2
23/04:00am 3.4 0.5 2.7 95 0.3 SE 7 9 4 5 1028.0 1028.3 0.2
23/03:30am 3.3 -0.3 2.7 96 0.2 ESE 11 11 6 6 1028.2 1028.5 0.2
23/03:00am 3.5 0.3 2.9 96 0.2 SE 9 9 5 5 1028.3 1028.6 0.2
23/02:30am 3.6 0.4 3.0 96 0.2 SE 9 13 5 7 1028.2 1028.5 0.2
23/02:00am 3.7 0.1 3.0 95 0.3 SE 11 13 6 7 1028.2 1028.5 0.2
23/01:30am 3.8 0.2 3.2 96 0.3 SE 11 13 6 7 1028.2 1028.5 0.2
23/01:00am 4.0 0.5 3.3 95 0.3 SE 11 13 6 7 1028.3 1028.6 0.2
23/12:30am 5.0 0.9 4.3 95 0.3 SE 15 17 8 9 1028.3 1028.6 0.2
23/12:00am 4.8 1.8 4.1 95 0.3 SSE 9 13 5 7 1028.4 1028.7 0.2
 
Date/Time
EST
Temp
°C
App
Temp
°C
Dew
Point
°C
Rel
Hum
%
Delta-T
°C
Wind Press
QNH
hPa
Press
MSL
hPa
Rain since
9am
mm
Dir  Spd
km/h
Gust
km/h
Spd
kts
Gust
kts
22/11:30pm 5.2 1.5 4.2 93 0.4 ESE 13 17 7 9 1028.3 1028.6 0.2
22/11:00pm 5.3 1.6 4.3 93 0.4 ESE 13 17 7 9 1028.4 1028.7 0.2
22/10:30pm 5.6 2.3 4.4 92 0.5 SE 11 15 6 8 1028.6 1028.9 0.2
22/10:00pm 5.8 1.3 4.4 91 0.6 ESE 17 20 9 11 1028.8 1029.1 0.2
22/09:30pm 6.3 1.0 4.8 90 0.7 ESE 22 32 12 17 1028.7 1029.0 0.2
22/09:00pm 6.7 1.0 5.0 89 0.8 ESE 24 33 13 18 1028.8 1029.1 0.2
22/08:30pm 6.5 1.8 5.0 90 0.7 SE 19 26 10 14 1028.8 1029.1 0.2
22/08:00pm 6.5 1.8 5.1 91 0.6 SE 19 22 10 12 1029.1 1029.5 0.2
22/07:30pm 6.4 2.1 5.2 92 0.5 SE 17 20 9 11 1029.0 1029.3 0.2
22/07:00pm 6.3 1.0 4.8 90 0.7 SE 22 30 12 16 1028.9 1029.2 0.2
22/06:30pm 7.4 2.6 5.7 89 0.8 SE 20 28 11 15 1028.7 1029.0 0.2
22/06:00pm 8.2 4.1 6.3 88 0.9 SSE 17 24 9 13 1028.4 1028.7 0.2
22/05:30pm 8.5 4.4 6.1 85 1.1 SSE 17 19 9 10 1028.3 1028.6 0.2
22/05:00pm 10.2 5.8 6.7 79 1.7 SSE 19 24 10 13 1028.2 1028.5 0.2
22/04:30pm 11.8 7.3 7.1 73 2.3 S 20 26 11 14 1028.1 1028.4 0.2
22/04:00pm 12.8 8.3 6.8 67 2.9 S 20 26 11 14 1028.1 1028.4 0.2
22/03:30pm 13.8 9.7 6.2 60 3.7 S 17 20 9 11 1028.1 1028.4 0.2
22/03:13pm 14.2 10.5 6.3 59 3.9 S 15 19 8 10 1028.1 1028.4 0.2
22/03:00pm 14.4 10.8 6.7 60 3.8 S 15 19 8 10 1028.1 1028.4 0.2
22/02:54pm 14.5 10.9 6.8 60 3.8 S 15 17 8 9 1028.1 1028.4 0.2
22/02:30pm 15.1 12.3 6.9 58 4.1 SSW 11 13 6 7 1028.2 1028.5 0.2
22/02:00pm 15.1 12.3 5.3 52 4.7 S 9 15 5 8 1028.3 1028.6 0.2
22/01:30pm 14.8 12.0 5.1 52 4.7 SSE 9 17 5 9 1028.5 1028.8 0.2
22/01:00pm 14.9 12.3 4.3 49 5.0 SW 7 13 4 7 1028.7 1029.0 0.2
22/12:30pm 14.5 12.0 4.5 51 4.7 SW 7 11 4 6 1029.1 1029.5 0.2
22/12:00pm 14.0 11.4 4.3 52 4.5 SSW 7 11 4 6 1029.4 1029.8 0.2
22/11:30am 13.8 12.3 4.9 55 4.2 S 2 11 1 6 1029.9 1030.3 0.0
22/11:00am 13.3 10.9 5.2 58 3.8 SSE 7 11 4 6 1030.3 1030.6 0.0
22/10:30am 12.1 9.1 6.2 67 2.9 SE 11 13 6 7 1030.4 1030.7 0.0
22/10:00am 11.3 8.4 6.6 73 2.3 SE 11 13 6 7 1030.5 1030.8 0.0
22/09:30am 10.2 7.0 6.9 80 1.6 ESE 13 17 7 9 1030.4 1030.7 0.0
22/09:00am 9.2 5.7 7.2 87 1.0 ESE 15 20 8 11 1030.6 1030.9 0.2
22/08:30am 7.7 4.0 6.3 91 0.7 ESE 15 20 8 11 1030.3 1030.6 0.2
22/08:00am 6.3 2.8 5.4 94 0.4 ESE 13 15 7 8 1030.4 1030.7 0.2
22/07:30am 5.6 1.7 5.2 97 0.2 ESE 15 19 8 10 1030.3 1030.6 0.2
22/07:00am 4.8 1.5 4.4 97 0.2 SE 11 13 6 7 1030.3 1030.6 0.2
22/06:52am 4.7 1.4 4.4 98 0.1 SE 11 13 6 7 1030.3 1030.6 0.2
22/06:30am 4.9 1.6 4.5 97 0.2 SE 11 13 6 7 1030.1 1030.5 0.0
22/06:00am 5.4 1.8 5.0 97 0.2 SE 13 17 7 9 1030.1 1030.5 0.0
22/05:57am 5.4 1.8 5.0 97 0.2 SE 13 17 7 9 1030.1 1030.5 0.0
22/05:30am 5.9 2.0 5.3 96 0.3 SE 15 19 8 10 1030.3 1030.6 0.0
22/05:23am 6.0 1.7 5.3 95 0.3 SE 17 24 9 13 1030.3 1030.6 0.0
22/05:00am 6.4 2.2 5.8 96 0.3 ESE 17 24 9 13 1030.3 1030.6 0.0
22/04:30am 6.7 2.2 6.3 97 0.2 ESE 19 28 10 15 1030.3 1030.6 0.0
22/04:18am 6.8 2.4 6.5 98 0.1 SE 19 26 10 14 1030.3 1030.6 0.0
22/04:00am 6.8 2.2 6.5 98 0.1 ESE 20 30 11 16 1030.3 1030.6 0.0
22/03:30am 6.1 1.0 5.8 98 0.1 SE 22 32 12 17 1030.5 1030.8 0.0
22/03:00am 5.8 1.0 5.5 98 0.1 SE 20 28 11 15 1030.6 1030.9 0.0
22/02:50am 5.6 0.7 5.3 98 0.1 SE 20 24 11 13 1030.8 1031.1 0.0
22/02:45am 5.4 0.7 5.0 97 0.2 SE 19 24 10 13 1030.8 1031.1 0.0
22/02:30am 4.7 1.0 4.3 97 0.2 SSE 13 17 7 9 1030.7 1031.0 0.0
22/02:00am 5.0 0.2 4.4 96 0.3 SE 19 22 10 12 1030.7 1031.0 0.0
22/01:30am 4.7 0.2 4.1 96 0.3 SE 17 19 9 10 1030.8 1031.1 0.0
22/01:00am 4.4 0.2 4.0 97 0.2 SE 15 19 8 10 1031.0 1031.4 0.0
22/12:30am 3.0 -1.8 2.4 96 0.2 SSE 17 19 9 10 1031.1 1031.5 0.0
22/12:00am 3.5 -0.9 2.6 94 0.4 S 15 17 8 9 1031.1 1031.5 0.0
 
Date/Time
EST
Temp
°C
App
Temp
°C
Dew
Point
°C
Rel
Hum
%
Delta-T
°C
Wind Press
QNH
hPa
Press
MSL
hPa
Rain since
9am
mm
Dir  Spd
km/h
Gust
km/h
Spd
kts
Gust
kts
21/11:30pm 4.6 0.7 3.6 93 0.4 S 13 17 7 9 1031.2 1031.6 0.0
21/11:00pm 5.2 1.4 3.9 91 0.6 SSE 13 13 7 7 1031.2 1031.6 0.0
21/10:30pm 7.0 2.3 5.0 87 0.9 SE 19 20 10 11 1031.3 1031.7 0.0
21/10:00pm 6.9 2.1 4.9 87 0.9 SE 19 20 10 11 1031.5 1031.9 0.0
21/09:30pm 6.8 2.4 5.0 88 0.8 SE 17 19 9 10 1031.5 1031.9 0.0
21/09:00pm 7.3 3.0 5.4 88 0.9 SE 17 19 9 10 1031.5 1031.9 0.0
21/08:30pm 7.9 3.7 5.9 87 0.9 ESE 17 20 9 11 1031.5 1031.9 0.0
21/08:00pm 8.5 3.9 6.6 88 0.9 ESE 20 24 11 13 1031.5 1031.9 0.0
21/07:30pm 8.9 4.0 6.9 87 1.0 ESE 22 26 12 14 1031.5 1031.9 0.0
21/07:00pm 9.3 4.4 6.9 85 1.1 ESE 22 28 12 15 1031.2 1031.6 0.0
21/06:30pm 10.0 5.6 7.3 83 1.3 ESE 20 28 11 15 1031.1 1031.5 0.0
21/06:00pm 10.6 6.2 7.3 80 1.6 ESE 20 30 11 16 1030.9 1031.2 0.0
21/05:30pm 11.6 7.2 7.3 75 2.1 ESE 20 26 11 14 1030.9 1031.2 0.0
21/05:00pm 12.4 7.9 7.1 70 2.6 ESE 20 28 11 15 1030.8 1031.1 0.0
21/04:30pm 13.5 9.3 7.5 67 3.0 ESE 19 22 10 12 1030.8 1031.1 0.0
21/04:00pm 14.1 10.0 7.9 66 3.1 SE 19 24 10 13 1030.8 1031.1 0.0
21/03:30pm 14.3 10.5 7.6 64 3.4 ESE 17 22 9 12 1030.8 1031.1 0.0
21/03:00pm 16.2 14.6 8.9 62 3.8 ESE 7 15 4 8 1030.8 1031.1 0.0
21/02:30pm 16.6 14.1 6.7 52 5.0 E 9 15 5 8 1030.9 1031.2 0.0
21/02:00pm 16.6 14.1 6.7 52 5.0 ESE 9 11 5 6 1031.1 1031.5 0.0
21/01:30pm 16.5 14.4 6.6 52 5.0 NNE 7 15 4 8 1031.4 1031.8 0.0
21/01:00pm 15.9 13.7 6.3 53 4.7 E 7 13 4 7 1031.8 1032.2 0.0
21/12:30pm 15.9 13.2 5.8 51 5.0 ENE 9 15 5 8 1032.1 1032.5 0.0
21/12:00pm 16.0 13.8 6.2 52 4.8 N 7 13 4 7 1032.5 1032.9 0.0
21/11:30am 15.0 11.5 5.5 53 4.6 N 13 19 7 10 1033.0 1033.4 0.0
21/11:00am 13.9 11.4 6.7 62 3.5 SSE 9 13 5 7 1033.3 1033.7 0.0
21/10:30am 13.1 11.1 6.9 66 3.1 SE 7 11 4 6 1033.5 1033.9 0.0
21/10:00am 11.8 9.7 6.5 70 2.5 SE 7 9 4 5 1033.6 1034.0 0.0
21/09:30am 10.1 7.2 6.4 78 1.8 SE 11 11 6 6 1033.8 1034.2 0.0
21/09:00am 8.5 5.4 5.6 82 1.3 SE 11 13 6 7 1033.7 1034.1 0.0
21/08:30am 7.1 4.0 5.4 89 0.8 SE 11 13 6 7 1033.7 1034.1 0.0
21/08:00am 5.2 2.2 4.2 93 0.4 SE 9 11 5 6 1033.6 1034.0 0.0
21/07:30am 4.7 0.4 3.5 92 0.5 ESE 15 17 8 9 1033.4 1033.8 0.0
21/07:00am 4.7 0.4 3.5 92 0.5 ESE 15 19 8 10 1033.2 1033.6 0.0
21/06:30am 5.0 0.0 3.8 92 0.5 ESE 19 20 10 11 1033.0 1033.4 0.0
21/06:00am 5.1 0.2 4.1 93 0.4 SE 19 20 10 11 1032.8 1033.1 0.0
21/05:30am 4.9 0.3 3.9 93 0.4 ESE 17 20 9 11 1032.8 1033.1 0.0
21/05:00am 4.8 0.2 3.9 94 0.4 SE 17 19 9 10 1032.6 1033.0 0.0
21/04:30am 4.7 0.5 3.7 93 0.4 ESE 15 17 8 9 1032.5 1032.9 0.0
21/04:00am 5.4 0.8 3.9 90 0.6 ESE 17 20 9 11 1032.6 1033.0 0.0
21/03:30am 5.9 1.1 4.4 90 0.7 ESE 19 22 10 12 1032.6 1033.0 0.0
21/03:00am 5.8 0.9 4.0 88 0.8 ESE 19 24 10 13 1032.9 1033.2 0.0
21/02:30am 6.0 0.8 3.8 86 1.0 ESE 20 26 11 14 1033.0 1033.4 0.0
21/02:00am 6.4 0.9 4.2 86 1.0 ESE 22 28 12 15 1032.9 1033.2 0.0
21/01:30am 6.0 1.5 4.0 87 0.9 ESE 17 28 9 15 1033.0 1033.4 0.0
21/01:00am 6.3 1.4 4.3 87 0.9 ESE 19 24 10 13 1033.0 1033.4 0.0
21/12:30am 6.1 1.0 4.3 88 0.8 ESE 20 24 11 13 1033.0 1033.4 0.0
21/12:00am 6.4 1.3 4.2 86 1.0 ESE 20 26 11 14 1033.0 1033.4 0.0
 
Date/Time
EST
Temp
°C
App
Temp
°C
Dew
Point
°C
Rel
Hum
%
Delta-T
°C
Wind Press
QNH
hPa
Press
MSL
hPa
Rain since
9am
mm
Dir  Spd
km/h
Gust
km/h
Spd
kts
Gust
kts
20/11:30pm 6.4 1.5 4.1 85 1.0 ESE 19 22 10 12 1033.2 1033.6 0.0
20/11:00pm 6.7 1.9 4.5 86 1.0 SE 19 22 10 12 1033.3 1033.7 0.0
20/10:30pm 6.8 2.4 4.5 85 1.0 SE 17 20 9 11 1033.5 1033.9 0.0
20/10:00pm 7.1 2.7 4.6 84 1.1 ESE 17 20 9 11 1033.6 1034.0 0.0
20/09:30pm 7.8 2.8 4.4 79 1.5 ESE 20 26 11 14 1033.6 1034.0 0.0
20/09:00pm 7.6 2.6 4.4 80 1.4 ESE 20 28 11 15 1033.5 1033.9 0.0
20/08:30pm 5.5 1.7 3.7 88 0.8 SE 13 15 7 8 1033.6 1034.0 0.0
20/08:00pm 5.0 2.4 3.2 88 0.8 SE 6 7 3 4 1033.6 1034.0 0.0
20/07:30pm 6.0 3.2 3.3 83 1.2 E 7 9 4 5 1033.5 1033.9 0.0
20/07:00pm 6.3 2.4 3.5 82 1.2 ESE 13 15 7 8 1033.1 1033.5 0.0

Other formats

Comma delimited format used in spreadsheet applications
http://www.bom.gov.au/fwo/IDV60801/IDV60801.94852.axf

JavaScript Object Notation format (JSON) in row-major order
http://www.bom.gov.au/fwo/IDV60801/IDV60801.94852.json

Data quality

Most of these data are generated automatically and are frequently updated. Quality checks on data are not normally performed. It is possible for incorrect values to appear. Refer to information at About Latest Weather Observations and please check the disclaimer before using these data.